sensor_id;sensor_type;location;lat;lon;timestamp;P1;durP1;ratioP1;P2;durP2;ratioP2
3081;SDS011;1551;51.046;7.010;2022-09-03T00:05:50;3.88;;;1.42;;
3081;SDS011;1551;51.046;7.010;2022-09-03T00:08:51;2.05;;;1.13;;
3081;SDS011;1551;51.046;7.010;2022-09-03T00:11:50;1.85;;;1.25;;
3081;SDS011;1551;51.046;7.010;2022-09-03T00:14:49;2.10;;;1.30;;
3081;SDS011;1551;51.046;7.010;2022-09-03T00:17:46;2.20;;;1.40;;
3081;SDS011;1551;51.046;7.010;2022-09-03T00:23:39;2.50;;;1.20;;
3081;SDS011;1551;51.046;7.010;2022-09-03T00:26:32;2.30;;;1.40;;
3081;SDS011;1551;51.046;7.010;2022-09-03T00:29:24;2.20;;;1.40;;
3081;SDS011;1551;51.046;7.010;2022-09-03T00:32:23;2.35;;;1.50;;
3081;SDS011;1551;51.046;7.010;2022-09-03T00:35:31;1.90;;;1.40;;
3081;SDS011;1551;51.046;7.010;2022-09-03T00:38:24;2.50;;;1.30;;
3081;SDS011;1551;51.046;7.010;2022-09-03T00:44:34;3.97;;;1.40;;
3081;SDS011;1551;51.046;7.010;2022-09-03T00:54:03;2.33;;;1.20;;
3081;SDS011;1551;51.046;7.010;2022-09-03T01:00:24;3.30;;;1.40;;
3081;SDS011;1551;51.046;7.010;2022-09-03T01:03:16;2.10;;;1.20;;
3081;SDS011;1551;51.046;7.010;2022-09-03T01:06:17;2.63;;;1.20;;
3081;SDS011;1551;51.046;7.010;2022-09-03T01:12:13;2.40;;;1.40;;
3081;SDS011;1551;51.046;7.010;2022-09-03T01:43:41;2.22;;;1.20;;
3081;SDS011;1551;51.046;7.010;2022-09-03T01:46:45;3.00;;;1.40;;
3081;SDS011;1551;51.046;7.010;2022-09-03T01:49:47;2.15;;;1.25;;
3081;SDS011;1551;51.046;7.010;2022-09-03T01:52:53;2.40;;;1.20;;
3081;SDS011;1551;51.046;7.010;2022-09-03T02:05:22;2.80;;;1.40;;
3081;SDS011;1551;51.046;7.010;2022-09-03T02:08:12;1.90;;;1.20;;
3081;SDS011;1551;51.046;7.010;2022-09-03T02:11:03;2.72;;;1.15;;
3081;SDS011;1551;51.046;7.010;2022-09-03T02:13:54;2.30;;;1.40;;
3081;SDS011;1551;51.046;7.010;2022-09-03T02:16:47;2.20;;;1.52;;
3081;SDS011;1551;51.046;7.010;2022-09-03T02:19:37;2.65;;;1.50;;
3081;SDS011;1551;51.046;7.010;2022-09-03T02:22:27;3.35;;;1.30;;
3081;SDS011;1551;51.046;7.010;2022-09-03T02:25:16;2.70;;;1.30;;
3081;SDS011;1551;51.046;7.010;2022-09-03T02:28:05;1.90;;;1.13;;
3081;SDS011;1551;51.046;7.010;2022-09-03T02:30:56;2.60;;;1.40;;
3081;SDS011;1551;51.046;7.010;2022-09-03T02:33:46;2.30;;;1.50;;
3081;SDS011;1551;51.046;7.010;2022-09-03T02:36:37;1.90;;;1.10;;
3081;SDS011;1551;51.046;7.010;2022-09-03T02:39:29;2.22;;;1.20;;
3081;SDS011;1551;51.046;7.010;2022-09-03T02:42:18;2.10;;;1.38;;
3081;SDS011;1551;51.046;7.010;2022-09-03T02:45:12;1.85;;;1.10;;
3081;SDS011;1551;51.046;7.010;2022-09-03T02:48:08;2.17;;;1.35;;
3081;SDS011;1551;51.046;7.010;2022-09-03T02:50:59;2.25;;;1.13;;
3081;SDS011;1551;51.046;7.010;2022-09-03T02:53:48;1.80;;;1.10;;
3081;SDS011;1551;51.046;7.010;2022-09-03T02:56:37;1.83;;;1.10;;
3081;SDS011;1551;51.046;7.010;2022-09-03T02:59:26;1.80;;;1.10;;
3081;SDS011;1551;51.046;7.010;2022-09-03T03:02:18;1.70;;;1.10;;
3081;SDS011;1551;51.046;7.010;2022-09-03T03:05:07;1.70;;;1.00;;
3081;SDS011;1551;51.046;7.010;2022-09-03T03:08:01;2.13;;;1.30;;
3081;SDS011;1551;51.046;7.010;2022-09-03T03:10:51;2.25;;;1.10;;
3081;SDS011;1551;51.046;7.010;2022-09-03T03:13:40;2.70;;;1.10;;
3081;SDS011;1551;51.046;7.010;2022-09-03T03:16:29;2.30;;;1.10;;
3081;SDS011;1551;51.046;7.010;2022-09-03T03:19:18;3.10;;;1.67;;
3081;SDS011;1551;51.046;7.010;2022-09-03T03:22:07;1.90;;;1.08;;
3081;SDS011;1551;51.046;7.010;2022-09-03T03:24:55;2.10;;;1.42;;
3081;SDS011;1551;51.046;7.010;2022-09-03T03:27:45;2.20;;;1.20;;
3081;SDS011;1551;51.046;7.010;2022-09-03T03:30:36;2.00;;;1.00;;
3081;SDS011;1551;51.046;7.010;2022-09-03T03:33:30;1.90;;;1.30;;
3081;SDS011;1551;51.046;7.010;2022-09-03T03:36:19;2.40;;;1.30;;
3081;SDS011;1551;51.046;7.010;2022-09-03T03:39:09;2.10;;;1.20;;
3081;SDS011;1551;51.046;7.010;2022-09-03T03:41:59;2.23;;;1.40;;
3081;SDS011;1551;51.046;7.010;2022-09-03T03:44:48;2.08;;;1.38;;
3081;SDS011;1551;51.046;7.010;2022-09-03T03:47:37;4.53;;;1.30;;
3081;SDS011;1551;51.046;7.010;2022-09-03T03:50:26;2.50;;;1.10;;
3081;SDS011;1551;51.046;7.010;2022-09-03T03:53:15;2.70;;;1.02;;
3081;SDS011;1551;51.046;7.010;2022-09-03T03:56:05;2.90;;;1.20;;
3081;SDS011;1551;51.046;7.010;2022-09-03T03:58:57;3.40;;;1.10;;
3081;SDS011;1551;51.046;7.010;2022-09-03T04:01:46;2.13;;;1.00;;
3081;SDS011;1551;51.046;7.010;2022-09-03T04:04:37;2.00;;;1.30;;
3081;SDS011;1551;51.046;7.010;2022-09-03T04:07:26;2.30;;;1.10;;
3081;SDS011;1551;51.046;7.010;2022-09-03T04:10:15;2.00;;;1.20;;
3081;SDS011;1551;51.046;7.010;2022-09-03T04:13:04;1.70;;;1.00;;
3081;SDS011;1551;51.046;7.010;2022-09-03T04:15:58;2.40;;;1.20;;
3081;SDS011;1551;51.046;7.010;2022-09-03T04:18:58;2.05;;;1.05;;
3081;SDS011;1551;51.046;7.010;2022-09-03T04:21:47;1.70;;;1.00;;
3081;SDS011;1551;51.046;7.010;2022-09-03T04:24:36;1.80;;;1.20;;
3081;SDS011;1551;51.046;7.010;2022-09-03T04:27:25;2.15;;;0.93;;
3081;SDS011;1551;51.046;7.010;2022-09-03T04:30:14;1.90;;;1.10;;
3081;SDS011;1551;51.046;7.010;2022-09-03T04:33:02;3.08;;;1.30;;
3081;SDS011;1551;51.046;7.010;2022-09-03T04:35:51;2.40;;;1.20;;
3081;SDS011;1551;51.046;7.010;2022-09-03T04:38:42;2.20;;;1.40;;
3081;SDS011;1551;51.046;7.010;2022-09-03T04:41:32;1.80;;;1.30;;
3081;SDS011;1551;51.046;7.010;2022-09-03T04:44:21;3.03;;;1.40;;
3081;SDS011;1551;51.046;7.010;2022-09-03T04:47:09;1.90;;;1.33;;
3081;SDS011;1551;51.046;7.010;2022-09-03T04:49:58;2.80;;;1.40;;
3081;SDS011;1551;51.046;7.010;2022-09-03T04:52:49;3.47;;;1.70;;
3081;SDS011;1551;51.046;7.010;2022-09-03T04:55:38;3.28;;;1.33;;
3081;SDS011;1551;51.046;7.010;2022-09-03T04:58:27;3.35;;;1.20;;
3081;SDS011;1551;51.046;7.010;2022-09-03T05:01:17;1.80;;;1.30;;
3081;SDS011;1551;51.046;7.010;2022-09-03T05:04:10;2.47;;;1.50;;
3081;SDS011;1551;51.046;7.010;2022-09-03T05:06:59;1.90;;;1.00;;
3081;SDS011;1551;51.046;7.010;2022-09-03T05:09:48;3.15;;;1.30;;
3081;SDS011;1551;51.046;7.010;2022-09-03T05:12:37;2.20;;;1.23;;
3081;SDS011;1551;51.046;7.010;2022-09-03T05:15:27;2.15;;;1.25;;
3081;SDS011;1551;51.046;7.010;2022-09-03T05:18:17;1.90;;;1.10;;
3081;SDS011;1551;51.046;7.010;2022-09-03T05:21:07;2.45;;;1.33;;
3081;SDS011;1551;51.046;7.010;2022-09-03T05:23:58;1.98;;;0.95;;
3081;SDS011;1551;51.046;7.010;2022-09-03T05:26:47;2.00;;;1.10;;
3081;SDS011;1551;51.046;7.010;2022-09-03T05:29:36;2.08;;;1.20;;
3081;SDS011;1551;51.046;7.010;2022-09-03T05:32:25;2.72;;;1.30;;
3081;SDS011;1551;51.046;7.010;2022-09-03T05:35:18;3.00;;;1.10;;
3081;SDS011;1551;51.046;7.010;2022-09-03T05:38:07;3.70;;;1.40;;
3081;SDS011;1551;51.046;7.010;2022-09-03T05:40:58;5.22;;;1.40;;
3081;SDS011;1551;51.046;7.010;2022-09-03T05:43:48;3.50;;;1.40;;
3081;SDS011;1551;51.046;7.010;2022-09-03T05:46:48;3.60;;;1.10;;
3081;SDS011;1551;51.046;7.010;2022-09-03T05:49:38;3.80;;;1.40;;
3081;SDS011;1551;51.046;7.010;2022-09-03T05:52:27;2.55;;;1.40;;
3081;SDS011;1551;51.046;7.010;2022-09-03T05:55:16;1.80;;;1.00;;
3081;SDS011;1551;51.046;7.010;2022-09-03T05:58:05;3.85;;;1.23;;
3081;SDS011;1551;51.046;7.010;2022-09-03T06:00:55;1.98;;;1.42;;
3081;SDS011;1551;51.046;7.010;2022-09-03T06:03:44;2.30;;;1.30;;
3081;SDS011;1551;51.046;7.010;2022-09-03T06:06:35;1.90;;;1.10;;
3081;SDS011;1551;51.046;7.010;2022-09-03T06:09:26;2.10;;;1.20;;
3081;SDS011;1551;51.046;7.010;2022-09-03T06:12:15;2.15;;;1.42;;
3081;SDS011;1551;51.046;7.010;2022-09-03T06:15:04;2.20;;;1.20;;
3081;SDS011;1551;51.046;7.010;2022-09-03T06:17:54;1.90;;;1.13;;
3081;SDS011;1551;51.046;7.010;2022-09-03T06:20:43;2.10;;;1.30;;
3081;SDS011;1551;51.046;7.010;2022-09-03T06:23:32;4.27;;;2.00;;
3081;SDS011;1551;51.046;7.010;2022-09-03T06:26:22;3.50;;;1.40;;
3081;SDS011;1551;51.046;7.010;2022-09-03T06:29:13;7.25;;;2.25;;
3081;SDS011;1551;51.046;7.010;2022-09-03T06:32:02;2.80;;;1.70;;
3081;SDS011;1551;51.046;7.010;2022-09-03T06:34:52;5.57;;;2.30;;
3081;SDS011;1551;51.046;7.010;2022-09-03T06:37:42;3.30;;;1.70;;
3081;SDS011;1551;51.046;7.010;2022-09-03T06:40:31;3.00;;;1.65;;
3081;SDS011;1551;51.046;7.010;2022-09-03T06:43:20;5.20;;;1.80;;
3081;SDS011;1551;51.046;7.010;2022-09-03T06:46:12;3.00;;;1.30;;
3081;SDS011;1551;51.046;7.010;2022-09-03T06:49:02;2.42;;;1.50;;
3081;SDS011;1551;51.046;7.010;2022-09-03T06:51:51;1.92;;;1.33;;
3081;SDS011;1551;51.046;7.010;2022-09-03T06:54:40;2.00;;;1.10;;
3081;SDS011;1551;51.046;7.010;2022-09-03T06:57:29;2.90;;;1.20;;
3081;SDS011;1551;51.046;7.010;2022-09-03T07:00:18;3.92;;;1.38;;
3081;SDS011;1551;51.046;7.010;2022-09-03T07:03:08;2.67;;;1.20;;
3081;SDS011;1551;51.046;7.010;2022-09-03T07:06:01;3.30;;;1.50;;
3081;SDS011;1551;51.046;7.010;2022-09-03T07:08:53;2.55;;;1.35;;
3081;SDS011;1551;51.046;7.010;2022-09-03T07:11:43;2.78;;;1.17;;
3081;SDS011;1551;51.046;7.010;2022-09-03T07:14:35;1.70;;;1.10;;
3081;SDS011;1551;51.046;7.010;2022-09-03T07:17:24;2.40;;;1.10;;
3081;SDS011;1551;51.046;7.010;2022-09-03T07:20:13;2.10;;;1.23;;
3081;SDS011;1551;51.046;7.010;2022-09-03T07:23:02;4.60;;;1.38;;
3081;SDS011;1551;51.046;7.010;2022-09-03T07:25:51;2.17;;;1.15;;
3081;SDS011;1551;51.046;7.010;2022-09-03T07:28:42;2.10;;;1.30;;
3081;SDS011;1551;51.046;7.010;2022-09-03T07:31:34;2.73;;;1.30;;
3081;SDS011;1551;51.046;7.010;2022-09-03T07:34:29;2.53;;;1.40;;
3081;SDS011;1551;51.046;7.010;2022-09-03T07:37:18;2.22;;;1.40;;
3081;SDS011;1551;51.046;7.010;2022-09-03T07:40:08;4.40;;;1.23;;
3081;SDS011;1551;51.046;7.010;2022-09-03T07:42:58;4.90;;;1.33;;
3081;SDS011;1551;51.046;7.010;2022-09-03T07:45:51;2.58;;;1.50;;
3081;SDS011;1551;51.046;7.010;2022-09-03T07:48:40;1.73;;;1.02;;
3081;SDS011;1551;51.046;7.010;2022-09-03T07:51:30;1.80;;;1.20;;
3081;SDS011;1551;51.046;7.010;2022-09-03T07:54:21;1.90;;;1.23;;
3081;SDS011;1551;51.046;7.010;2022-09-03T07:57:13;2.13;;;1.20;;
3081;SDS011;1551;51.046;7.010;2022-09-03T08:00:03;2.00;;;1.10;;
3081;SDS011;1551;51.046;7.010;2022-09-03T08:03:00;3.20;;;1.40;;
3081;SDS011;1551;51.046;7.010;2022-09-03T08:05:53;1.70;;;1.10;;
3081;SDS011;1551;51.046;7.010;2022-09-03T08:08:48;3.50;;;1.20;;
3081;SDS011;1551;51.046;7.010;2022-09-03T08:11:42;3.00;;;1.10;;
3081;SDS011;1551;51.046;7.010;2022-09-03T08:14:31;1.60;;;1.13;;
3081;SDS011;1551;51.046;7.010;2022-09-03T08:17:20;2.42;;;1.13;;
3081;SDS011;1551;51.046;7.010;2022-09-03T08:20:09;2.30;;;1.30;;
3081;SDS011;1551;51.046;7.010;2022-09-03T08:23:01;2.17;;;1.20;;
3081;SDS011;1551;51.046;7.010;2022-09-03T08:26:00;1.60;;;1.02;;
3081;SDS011;1551;51.046;7.010;2022-09-03T08:28:51;3.83;;;1.40;;
3081;SDS011;1551;51.046;7.010;2022-09-03T08:31:40;2.25;;;1.30;;
3081;SDS011;1551;51.046;7.010;2022-09-03T08:34:30;2.20;;;1.40;;
3081;SDS011;1551;51.046;7.010;2022-09-03T08:37:19;2.30;;;1.30;;
3081;SDS011;1551;51.046;7.010;2022-09-03T08:40:15;2.17;;;1.33;;
3081;SDS011;1551;51.046;7.010;2022-09-03T08:43:10;2.78;;;1.60;;
3081;SDS011;1551;51.046;7.010;2022-09-03T08:46:06;2.00;;;1.30;;
3081;SDS011;1551;51.046;7.010;2022-09-03T08:48:56;2.35;;;1.25;;
3081;SDS011;1551;51.046;7.010;2022-09-03T08:51:46;2.70;;;1.20;;
3081;SDS011;1551;51.046;7.010;2022-09-03T08:54:37;2.70;;;1.40;;
3081;SDS011;1551;51.046;7.010;2022-09-03T08:57:26;3.10;;;1.30;;
3081;SDS011;1551;51.046;7.010;2022-09-03T09:00:20;3.05;;;1.70;;
3081;SDS011;1551;51.046;7.010;2022-09-03T09:03:26;3.53;;;2.20;;
3081;SDS011;1551;51.046;7.010;2022-09-03T09:09:46;3.00;;;1.88;;
3081;SDS011;1551;51.046;7.010;2022-09-03T09:12:46;1.95;;;1.50;;
3081;SDS011;1551;51.046;7.010;2022-09-03T09:15:48;1.77;;;1.25;;
3081;SDS011;1551;51.046;7.010;2022-09-03T09:22:04;1.70;;;1.23;;
3081;SDS011;1551;51.046;7.010;2022-09-03T09:25:00;2.00;;;1.40;;
3081;SDS011;1551;51.046;7.010;2022-09-03T09:31:09;1.90;;;1.35;;
3081;SDS011;1551;51.046;7.010;2022-09-03T09:34:03;3.10;;;1.55;;
3081;SDS011;1551;51.046;7.010;2022-09-03T09:36:54;2.22;;;1.45;;
3081;SDS011;1551;51.046;7.010;2022-09-03T09:39:54;2.10;;;1.60;;
3081;SDS011;1551;51.046;7.010;2022-09-03T09:42:47;2.53;;;1.40;;
3081;SDS011;1551;51.046;7.010;2022-09-03T09:45:37;2.15;;;1.40;;
3081;SDS011;1551;51.046;7.010;2022-09-03T09:48:29;2.33;;;1.55;;
3081;SDS011;1551;51.046;7.010;2022-09-03T09:51:28;4.10;;;1.17;;
3081;SDS011;1551;51.046;7.010;2022-09-03T09:54:23;2.03;;;1.30;;
3081;SDS011;1551;51.046;7.010;2022-09-03T09:57:24;2.45;;;1.42;;
3081;SDS011;1551;51.046;7.010;2022-09-03T10:00:15;2.60;;;1.58;;
3081;SDS011;1551;51.046;7.010;2022-09-03T10:03:06;3.33;;;1.63;;
3081;SDS011;1551;51.046;7.010;2022-09-03T10:06:00;4.43;;;1.60;;
3081;SDS011;1551;51.046;7.010;2022-09-03T10:09:16;1.90;;;1.58;;
3081;SDS011;1551;51.046;7.010;2022-09-03T10:12:24;2.60;;;1.60;;
3081;SDS011;1551;51.046;7.010;2022-09-03T10:15:28;2.03;;;1.40;;
3081;SDS011;1551;51.046;7.010;2022-09-03T10:21:30;3.00;;;1.35;;
3081;SDS011;1551;51.046;7.010;2022-09-03T10:24:36;2.13;;;1.23;;
3081;SDS011;1551;51.046;7.010;2022-09-03T10:27:27;1.60;;;1.20;;
3081;SDS011;1551;51.046;7.010;2022-09-03T10:30:16;2.63;;;1.70;;
3081;SDS011;1551;51.046;7.010;2022-09-03T10:33:22;2.40;;;1.60;;
3081;SDS011;1551;51.046;7.010;2022-09-03T10:39:05;2.40;;;1.55;;
3081;SDS011;1551;51.046;7.010;2022-09-03T10:45:17;2.40;;;1.67;;
3081;SDS011;1551;51.046;7.010;2022-09-03T10:51:25;2.40;;;1.60;;
3081;SDS011;1551;51.046;7.010;2022-09-03T10:54:38;3.03;;;1.70;;
3081;SDS011;1551;51.046;7.010;2022-09-03T11:01:02;2.43;;;1.57;;
3081;SDS011;1551;51.046;7.010;2022-09-03T11:07:03;2.53;;;1.30;;
3081;SDS011;1551;51.046;7.010;2022-09-03T11:13:11;3.10;;;1.98;;
3081;SDS011;1551;51.046;7.010;2022-09-03T11:16:13;2.10;;;1.55;;
3081;SDS011;1551;51.046;7.010;2022-09-03T11:19:12;2.20;;;1.83;;
3081;SDS011;1551;51.046;7.010;2022-09-03T11:22:05;2.53;;;1.60;;
3081;SDS011;1551;51.046;7.010;2022-09-03T11:24:57;2.10;;;1.70;;
3081;SDS011;1551;51.046;7.010;2022-09-03T11:27:55;2.88;;;1.83;;
3081;SDS011;1551;51.046;7.010;2022-09-03T11:31:05;2.58;;;1.88;;
3081;SDS011;1551;51.046;7.010;2022-09-03T11:37:25;2.40;;;1.60;;
3081;SDS011;1551;51.046;7.010;2022-09-03T11:40:16;2.92;;;1.85;;
3081;SDS011;1551;51.046;7.010;2022-09-03T11:43:07;2.40;;;1.60;;
3081;SDS011;1551;51.046;7.010;2022-09-03T11:49:12;3.65;;;2.00;;
3081;SDS011;1551;51.046;7.010;2022-09-03T11:52:13;6.93;;;2.08;;
3081;SDS011;1551;51.046;7.010;2022-09-03T11:55:45;3.45;;;2.00;;
3081;SDS011;1551;51.046;7.010;2022-09-03T11:58:46;2.50;;;1.90;;
3081;SDS011;1551;51.046;7.010;2022-09-03T12:01:51;3.50;;;2.00;;
3081;SDS011;1551;51.046;7.010;2022-09-03T12:05:13;2.30;;;1.88;;
3081;SDS011;1551;51.046;7.010;2022-09-03T12:08:17;2.50;;;1.90;;
3081;SDS011;1551;51.046;7.010;2022-09-03T12:17:40;3.40;;;2.10;;
3081;SDS011;1551;51.046;7.010;2022-09-03T12:21:09;2.40;;;2.08;;
3081;SDS011;1551;51.046;7.010;2022-09-03T12:24:00;2.40;;;2.00;;
3081;SDS011;1551;51.046;7.010;2022-09-03T12:26:50;2.30;;;1.70;;
3081;SDS011;1551;51.046;7.010;2022-09-03T12:29:38;2.40;;;2.00;;
3081;SDS011;1551;51.046;7.010;2022-09-03T12:32:44;3.70;;;1.80;;
3081;SDS011;1551;51.046;7.010;2022-09-03T12:35:35;2.57;;;1.80;;
3081;SDS011;1551;51.046;7.010;2022-09-03T12:38:24;2.70;;;1.90;;
3081;SDS011;1551;51.046;7.010;2022-09-03T12:41:33;2.20;;;1.80;;
3081;SDS011;1551;51.046;7.010;2022-09-03T12:44:26;2.30;;;2.10;;
3081;SDS011;1551;51.046;7.010;2022-09-03T12:47:18;2.35;;;2.00;;
3081;SDS011;1551;51.046;7.010;2022-09-03T12:50:14;1.92;;;1.63;;
3081;SDS011;1551;51.046;7.010;2022-09-03T12:53:05;2.55;;;2.17;;
3081;SDS011;1551;51.046;7.010;2022-09-03T12:55:58;2.20;;;1.60;;
3081;SDS011;1551;51.046;7.010;2022-09-03T12:58:54;2.53;;;1.70;;
3081;SDS011;1551;51.046;7.010;2022-09-03T13:01:48;2.50;;;1.60;;
3081;SDS011;1551;51.046;7.010;2022-09-03T13:04:41;6.53;;;2.00;;
3081;SDS011;1551;51.046;7.010;2022-09-03T13:07:32;3.70;;;2.28;;
3081;SDS011;1551;51.046;7.010;2022-09-03T13:10:27;2.17;;;1.75;;
3081;SDS011;1551;51.046;7.010;2022-09-03T13:13:20;2.13;;;1.60;;
3081;SDS011;1551;51.046;7.010;2022-09-03T13:22:33;3.00;;;1.90;;
3081;SDS011;1551;51.046;7.010;2022-09-03T13:29:07;2.40;;;1.85;;
3081;SDS011;1551;51.046;7.010;2022-09-03T13:38:08;2.50;;;1.83;;
3081;SDS011;1551;51.046;7.010;2022-09-03T13:41:07;2.03;;;1.83;;
3081;SDS011;1551;51.046;7.010;2022-09-03T13:44:13;2.40;;;1.80;;
3081;SDS011;1551;51.046;7.010;2022-09-03T13:50:17;2.60;;;1.90;;
3081;SDS011;1551;51.046;7.010;2022-09-03T13:53:19;2.90;;;1.90;;
3081;SDS011;1551;51.046;7.010;2022-09-03T13:56:21;2.00;;;1.80;;
3081;SDS011;1551;51.046;7.010;2022-09-03T13:59:22;2.60;;;1.90;;
3081;SDS011;1551;51.046;7.010;2022-09-03T14:12:42;2.30;;;1.80;;
3081;SDS011;1551;51.046;7.010;2022-09-03T14:15:41;2.08;;;1.70;;
3081;SDS011;1551;51.046;7.010;2022-09-03T14:21:40;2.60;;;1.80;;
3081;SDS011;1551;51.046;7.010;2022-09-03T14:27:51;2.40;;;1.63;;
3081;SDS011;1551;51.046;7.010;2022-09-03T14:30:48;3.60;;;2.50;;
3081;SDS011;1551;51.046;7.010;2022-09-03T14:37:49;2.27;;;1.90;;
3081;SDS011;1551;51.046;7.010;2022-09-03T14:49:50;2.95;;;2.05;;
3081;SDS011;1551;51.046;7.010;2022-09-03T14:52:57;2.37;;;1.80;;
3081;SDS011;1551;51.046;7.010;2022-09-03T15:05:29;2.53;;;2.20;;
3081;SDS011;1551;51.046;7.010;2022-09-03T15:11:49;2.50;;;1.95;;
3081;SDS011;1551;51.046;7.010;2022-09-03T15:14:55;2.65;;;2.10;;
3081;SDS011;1551;51.046;7.010;2022-09-03T15:17:53;2.70;;;2.30;;
3081;SDS011;1551;51.046;7.010;2022-09-03T15:20:51;2.77;;;2.00;;
3081;SDS011;1551;51.046;7.010;2022-09-03T15:33:16;2.43;;;2.00;;
3081;SDS011;1551;51.046;7.010;2022-09-03T15:36:27;3.10;;;2.00;;
3081;SDS011;1551;51.046;7.010;2022-09-03T15:39:25;2.50;;;1.90;;
3081;SDS011;1551;51.046;7.010;2022-09-03T15:42:21;3.00;;;2.10;;
3081;SDS011;1551;51.046;7.010;2022-09-03T15:48:12;3.00;;;2.10;;
3081;SDS011;1551;51.046;7.010;2022-09-03T15:51:12;2.75;;;2.00;;
3081;SDS011;1551;51.046;7.010;2022-09-03T15:54:15;3.10;;;2.20;;
3081;SDS011;1551;51.046;7.010;2022-09-03T15:57:20;3.33;;;2.20;;
3081;SDS011;1551;51.046;7.010;2022-09-03T16:00:17;2.00;;;1.70;;
3081;SDS011;1551;51.046;7.010;2022-09-03T16:03:08;2.55;;;1.90;;
3081;SDS011;1551;51.046;7.010;2022-09-03T16:06:08;2.80;;;2.13;;
3081;SDS011;1551;51.046;7.010;2022-09-03T16:09:17;2.45;;;2.00;;
3081;SDS011;1551;51.046;7.010;2022-09-03T16:12:25;3.05;;;2.17;;
3081;SDS011;1551;51.046;7.010;2022-09-03T16:15:25;3.73;;;2.43;;
3081;SDS011;1551;51.046;7.010;2022-09-03T16:18:35;2.30;;;2.00;;
3081;SDS011;1551;51.046;7.010;2022-09-03T16:21:56;2.35;;;1.98;;
3081;SDS011;1551;51.046;7.010;2022-09-03T16:38:07;3.10;;;2.20;;
3081;SDS011;1551;51.046;7.010;2022-09-03T16:41:12;3.00;;;2.30;;
3081;SDS011;1551;51.046;7.010;2022-09-03T16:59:48;2.40;;;1.70;;
3081;SDS011;1551;51.046;7.010;2022-09-03T17:06:19;3.10;;;2.10;;
3081;SDS011;1551;51.046;7.010;2022-09-03T17:16:29;3.47;;;2.08;;
3081;SDS011;1551;51.046;7.010;2022-09-03T17:35:40;3.70;;;1.90;;
3081;SDS011;1551;51.046;7.010;2022-09-03T17:41:49;2.90;;;1.90;;
3081;SDS011;1551;51.046;7.010;2022-09-03T17:51:16;3.42;;;2.05;;
3081;SDS011;1551;51.046;7.010;2022-09-03T17:54:19;3.97;;;1.95;;
3081;SDS011;1551;51.046;7.010;2022-09-03T18:00:25;3.80;;;2.20;;
3081;SDS011;1551;51.046;7.010;2022-09-03T18:03:23;3.55;;;2.08;;
3081;SDS011;1551;51.046;7.010;2022-09-03T18:06:25;3.40;;;2.20;;
3081;SDS011;1551;51.046;7.010;2022-09-03T18:09:30;3.20;;;2.10;;
3081;SDS011;1551;51.046;7.010;2022-09-03T18:12:50;2.90;;;2.03;;
3081;SDS011;1551;51.046;7.010;2022-09-03T18:16:06;2.70;;;2.00;;
3081;SDS011;1551;51.046;7.010;2022-09-03T18:22:06;2.45;;;1.83;;
3081;SDS011;1551;51.046;7.010;2022-09-03T18:25:14;1.95;;;1.60;;
3081;SDS011;1551;51.046;7.010;2022-09-03T18:28:27;2.85;;;1.90;;
3081;SDS011;1551;51.046;7.010;2022-09-03T18:31:45;2.00;;;1.50;;
3081;SDS011;1551;51.046;7.010;2022-09-03T18:34:53;4.43;;;1.80;;
3081;SDS011;1551;51.046;7.010;2022-09-03T18:38:02;2.72;;;1.90;;
3081;SDS011;1551;51.046;7.010;2022-09-03T18:41:15;4.55;;;2.58;;
3081;SDS011;1551;51.046;7.010;2022-09-03T18:44:49;3.78;;;2.75;;
3081;SDS011;1551;51.046;7.010;2022-09-03T18:48:27;2.80;;;2.30;;
3081;SDS011;1551;51.046;7.010;2022-09-03T18:51:57;3.00;;;2.20;;
3081;SDS011;1551;51.046;7.010;2022-09-03T18:59:02;2.90;;;1.90;;
3081;SDS011;1551;51.046;7.010;2022-09-03T19:02:30;3.95;;;2.30;;
3081;SDS011;1551;51.046;7.010;2022-09-03T19:15:58;2.67;;;1.98;;
3081;SDS011;1551;51.046;7.010;2022-09-03T19:19:16;3.08;;;1.60;;
3081;SDS011;1551;51.046;7.010;2022-09-03T19:22:35;4.25;;;1.80;;
3081;SDS011;1551;51.046;7.010;2022-09-03T19:25:47;4.18;;;2.00;;
3081;SDS011;1551;51.046;7.010;2022-09-03T19:28:58;2.30;;;1.70;;
3081;SDS011;1551;51.046;7.010;2022-09-03T19:32:15;2.00;;;1.60;;
3081;SDS011;1551;51.046;7.010;2022-09-03T19:35:31;1.95;;;1.60;;
3081;SDS011;1551;51.046;7.010;2022-09-03T19:46:08;2.58;;;1.70;;
3081;SDS011;1551;51.046;7.010;2022-09-03T19:49:29;2.07;;;1.33;;
3081;SDS011;1551;51.046;7.010;2022-09-03T19:56:21;2.40;;;1.47;;
3081;SDS011;1551;51.046;7.010;2022-09-03T19:59:33;2.50;;;1.70;;
3081;SDS011;1551;51.046;7.010;2022-09-03T20:02:46;2.75;;;1.70;;
3081;SDS011;1551;51.046;7.010;2022-09-03T20:05:55;2.60;;;1.60;;
3081;SDS011;1551;51.046;7.010;2022-09-03T20:09:07;2.90;;;1.80;;
3081;SDS011;1551;51.046;7.010;2022-09-03T20:12:16;2.20;;;1.73;;
3081;SDS011;1551;51.046;7.010;2022-09-03T20:15:09;2.58;;;1.40;;
3081;SDS011;1551;51.046;7.010;2022-09-03T20:19:00;2.13;;;1.60;;
3081;SDS011;1551;51.046;7.010;2022-09-03T20:34:16;1.98;;;1.40;;
3081;SDS011;1551;51.046;7.010;2022-09-03T20:49:49;2.58;;;2.25;;
3081;SDS011;1551;51.046;7.010;2022-09-03T20:52:55;2.60;;;2.10;;
3081;SDS011;1551;51.046;7.010;2022-09-03T20:55:54;2.72;;;2.10;;
3081;SDS011;1551;51.046;7.010;2022-09-03T20:58:52;2.42;;;1.90;;
3081;SDS011;1551;51.046;7.010;2022-09-03T21:05:14;2.05;;;1.80;;
3081;SDS011;1551;51.046;7.010;2022-09-03T21:11:34;3.50;;;2.20;;
3081;SDS011;1551;51.046;7.010;2022-09-03T21:14:33;2.88;;;2.50;;
3081;SDS011;1551;51.046;7.010;2022-09-03T21:20:41;2.50;;;2.03;;
3081;SDS011;1551;51.046;7.010;2022-09-03T21:23:39;2.70;;;2.10;;
3081;SDS011;1551;51.046;7.010;2022-09-03T21:26:33;2.83;;;1.83;;
3081;SDS011;1551;51.046;7.010;2022-09-03T21:29:31;2.47;;;1.88;;
3081;SDS011;1551;51.046;7.010;2022-09-03T21:32:29;2.40;;;1.73;;
3081;SDS011;1551;51.046;7.010;2022-09-03T21:35:27;2.13;;;1.70;;
3081;SDS011;1551;51.046;7.010;2022-09-03T21:38:23;2.60;;;1.73;;
3081;SDS011;1551;51.046;7.010;2022-09-03T21:44:40;2.17;;;1.90;;
3081;SDS011;1551;51.046;7.010;2022-09-03T21:47:39;3.03;;;1.90;;
3081;SDS011;1551;51.046;7.010;2022-09-03T21:53:56;2.58;;;1.92;;
3081;SDS011;1551;51.046;7.010;2022-09-03T22:03:06;3.10;;;1.80;;
3081;SDS011;1551;51.046;7.010;2022-09-03T22:06:21;2.33;;;1.90;;
3081;SDS011;1551;51.046;7.010;2022-09-03T22:09:16;2.10;;;1.70;;
3081;SDS011;1551;51.046;7.010;2022-09-03T22:12:34;2.70;;;2.00;;
3081;SDS011;1551;51.046;7.010;2022-09-03T22:15:31;2.97;;;1.70;;
3081;SDS011;1551;51.046;7.010;2022-09-03T22:18:21;2.60;;;1.90;;
3081;SDS011;1551;51.046;7.010;2022-09-03T22:21:27;2.60;;;2.00;;
3081;SDS011;1551;51.046;7.010;2022-09-03T22:30:17;2.95;;;2.30;;
3081;SDS011;1551;51.046;7.010;2022-09-03T22:36:43;2.77;;;2.47;;
3081;SDS011;1551;51.046;7.010;2022-09-03T22:39:42;6.90;;;3.10;;
3081;SDS011;1551;51.046;7.010;2022-09-03T22:52:06;3.70;;;2.30;;
3081;SDS011;1551;51.046;7.010;2022-09-03T22:55:23;2.75;;;2.45;;
3081;SDS011;1551;51.046;7.010;2022-09-03T22:58:18;2.90;;;2.60;;
3081;SDS011;1551;51.046;7.010;2022-09-03T23:01:20;2.80;;;2.40;;
3081;SDS011;1551;51.046;7.010;2022-09-03T23:04:29;3.40;;;3.00;;
3081;SDS011;1551;51.046;7.010;2022-09-03T23:10:59;4.15;;;2.88;;
3081;SDS011;1551;51.046;7.010;2022-09-03T23:13:55;4.75;;;2.80;;
3081;SDS011;1551;51.046;7.010;2022-09-03T23:16:50;3.53;;;2.93;;
3081;SDS011;1551;51.046;7.010;2022-09-03T23:19:48;3.38;;;3.08;;
3081;SDS011;1551;51.046;7.010;2022-09-03T23:22:47;3.50;;;3.03;;
3081;SDS011;1551;51.046;7.010;2022-09-03T23:25:48;3.08;;;2.50;;
3081;SDS011;1551;51.046;7.010;2022-09-03T23:28:43;3.72;;;2.40;;
3081;SDS011;1551;51.046;7.010;2022-09-03T23:31:36;3.95;;;3.28;;
3081;SDS011;1551;51.046;7.010;2022-09-03T23:34:26;3.57;;;2.80;;
3081;SDS011;1551;51.046;7.010;2022-09-03T23:37:18;3.42;;;2.40;;
3081;SDS011;1551;51.046;7.010;2022-09-03T23:43:12;2.60;;;2.40;;
